地図

経路データ

SID SEASON NUMBER BASIN SUBBASIN NAME ISO_TIME NATURE LAT LON WMO_WIND WMO_PRES WMO_AGENCY TRACK_TYPE DIST2LAND LANDFALL IFLAG USA_AGENCY USA_ATCF_ID USA_LAT USA_LON USA_RECORD USA_STATUS USA_WIND USA_PRES USA_SSHS USA_R34_NE USA_R34_SE USA_R34_SW USA_R34_NW USA_R50_NE USA_R50_SE USA_R50_SW USA_R50_NW USA_R64_NE USA_R64_SE USA_R64_SW USA_R64_NW USA_POCI USA_ROCI USA_RMW USA_EYE TOKYO_LAT TOKYO_LON TOKYO_GRADE TOKYO_WIND TOKYO_PRES TOKYO_R50_DIR TOKYO_R50_LONG TOKYO_R50_SHORT TOKYO_R30_DIR TOKYO_R30_LONG TOKYO_R30_SHORT TOKYO_LAND CMA_LAT CMA_LON CMA_CAT CMA_WIND CMA_PRES HKO_LAT HKO_LON HKO_CAT HKO_WIND HKO_PRES NEWDELHI_LAT NEWDELHI_LON NEWDELHI_GRADE NEWDELHI_WIND NEWDELHI_PRES NEWDELHI_CI NEWDELHI_DP NEWDELHI_POCI REUNION_LAT REUNION_LON REUNION_TYPE REUNION_WIND REUNION_PRES REUNION_TNUM REUNION_CI REUNION_RMW REUNION_R34_NE REUNION_R34_SE REUNION_R34_SW REUNION_R34_NW REUNION_R50_NE REUNION_R50_SE REUNION_R50_SW REUNION_R50_NW REUNION_R64_NE REUNION_R64_SE REUNION_R64_SW REUNION_R64_NW BOM_LAT BOM_LON BOM_TYPE BOM_WIND BOM_PRES BOM_TNUM BOM_CI BOM_RMW BOM_R34_NE BOM_R34_SE BOM_R34_SW BOM_R34_NW BOM_R50_NE BOM_R50_SE BOM_R50_SW BOM_R50_NW BOM_R64_NE BOM_R64_SE BOM_R64_SW BOM_R64_NW BOM_ROCI BOM_POCI BOM_EYE BOM_POS_METHOD BOM_PRES_METHOD NADI_LAT NADI_LON NADI_CAT NADI_WIND NADI_PRES WELLINGTON_LAT WELLINGTON_LON WELLINGTON_WIND WELLINGTON_PRES DS824_LAT DS824_LON DS824_STAGE DS824_WIND DS824_PRES TD9636_LAT TD9636_LON TD9636_STAGE TD9636_WIND TD9636_PRES TD9635_LAT TD9635_LON TD9635_WIND TD9635_PRES TD9635_ROCI NEUMANN_LAT NEUMANN_LON NEUMANN_CLASS NEUMANN_WIND NEUMANN_PRES MLC_LAT MLC_LON MLC_CLASS MLC_WIND MLC_PRES USA_GUST BOM_GUST BOM_GUST_PER REUNION_GUST REUNION_GUST_PER USA_SEAHGT USA_SEARAD_NE USA_SEARAD_SE USA_SEARAD_SW USA_SEARAD_NW STORM_SPEED STORM_DIR
1996244N13257 1996 75 EP MM ELIDA 1996-08-30 12:00:00 TS 13.4000 -103.500 25 1007 hurdat_epa main 506 500 O_____________ hurdat_epa EP081996 13.4000 -103.500 TD 25 1007 -1 13 303
1996244N13257 1996 75 EP MM ELIDA 1996-08-30 15:00:00 TS 13.7603 -104.067 main 496 479 P_____________ EP081996 13.7603 -104.067 TD 25 1006 -1 13 303
1996244N13257 1996 75 EP MM ELIDA 1996-08-30 18:00:00 TS 14.1000 -104.600 25 1006 hurdat_epa main 482 464 O_____________ hurdat_epa EP081996 14.1000 -104.600 TD 25 1006 -1 12 304
1996244N13257 1996 75 EP MM ELIDA 1996-08-30 21:00:00 TS 14.4074 -105.073 main 468 450 P_____________ EP081996 14.4074 -105.073 TD 27 1005 -1 11 305
1996244N13257 1996 75 EP MM ELIDA 1996-08-31 00:00:00 TS 14.7000 -105.500 30 1005 hurdat_epa main 455 446 O_____________ hurdat_epa EP081996 14.7000 -105.500 TD 30 1005 -1 10 306
1996244N13257 1996 75 EP MM ELIDA 1996-08-31 03:00:00 TS 14.9999 -105.908 main 449 443 P_____________ EP081996 14.9999 -105.908 TD 30 1004 -1 10 308
1996244N13257 1996 75 EP MM ELIDA 1996-08-31 06:00:00 TS 15.3000 -106.300 30 1004 hurdat_epa main 448 445 O_____________ hurdat_epa EP081996 15.3000 -106.300 TD 30 1004 -1 10 308
1996244N13257 1996 75 EP MM ELIDA 1996-08-31 09:00:00 TS 15.6000 -106.715 main 450 436 P_____________ EP081996 15.6000 -106.715 TD 30 1003 -1 10 308
1996244N13257 1996 75 EP MM ELIDA 1996-08-31 12:00:00 TS 15.9000 -107.100 30 1003 hurdat_epa main 442 434 O_____________ hurdat_epa EP081996 15.9000 -107.100 TD 30 1003 -1 9 312
1996244N13257 1996 75 EP MM ELIDA 1996-08-31 15:00:00 TS 16.1999 -107.408 main 434 430 P_____________ EP081996 16.1999 -107.408 TD 30 1003 -1 8 316
1996244N13257 1996 75 EP MM ELIDA 1996-08-31 18:00:00 TS 16.5000 -107.700 30 1004 hurdat_epa main 430 430 O_____________ hurdat_epa EP081996 16.5000 -107.700 TD 30 1004 -1 9 315
1996244N13257 1996 75 EP MM ELIDA 1996-08-31 21:00:00 TS 16.8226 -108.065 main 438 430 P_____________ EP081996 16.8226 -108.065 TD 30 1004 -1 9 312
1996244N13257 1996 75 EP MM ELIDA 1996-09-01 00:00:00 TS 17.1000 -108.400 30 1005 hurdat_epa main 437 437 O_____________ hurdat_epa EP081996 17.1000 -108.400 TD 30 1005 -1 7 310
1996244N13257 1996 75 EP MM ELIDA 1996-09-01 03:00:00 TS 17.2724 -108.630 main 439 439 P_____________ EP081996 17.2724 -108.630 TD 30 1005 -1 5 308
1996244N13257 1996 75 EP MM ELIDA 1996-09-01 06:00:00 TS 17.4000 -108.800 30 1005 hurdat_epa main 449 449 O_____________ hurdat_epa EP081996 17.4000 -108.800 TD 30 1005 -1 4 310
1996244N13257 1996 75 EP MM ELIDA 1996-09-01 09:00:00 TS 17.5425 -108.965 main 461 455 P_____________ EP081996 17.5425 -108.965 TD 30 1005 -1 4 317
1996244N13257 1996 75 EP MM ELIDA 1996-09-01 12:00:00 TS 17.7000 -109.100 30 1005 hurdat_epa main 457 451 O_____________ hurdat_epa EP081996 17.7000 -109.100 TD 30 1005 -1 4 330
1996244N13257 1996 75 EP MM ELIDA 1996-09-01 15:00:00 TS 17.9149 -109.185 main 454 448 P_____________ EP081996 17.9149 -109.185 TD 30 1005 -1 4 335
1996244N13257 1996 75 EP MM ELIDA 1996-09-01 18:00:00 TS 18.1000 -109.300 30 1005 hurdat_epa main 452 452 O_____________ hurdat_epa EP081996 18.1000 -109.300 TD 30 1005 -1 4 308
1996244N13257 1996 75 EP MM ELIDA 1996-09-01 21:00:00 TS 18.1726 -109.535 main 466 466 P_____________ EP081996 18.1726 -109.535 TD 30 1005 -1 5 282
1996244N13257 1996 75 EP MM ELIDA 1996-09-02 00:00:00 TS 18.2000 -109.800 30 1005 hurdat_epa main 494 494 O_____________ hurdat_epa EP081996 18.2000 -109.800 TD 30 1005 -1 5 277
1996244N13257 1996 75 EP MM ELIDA 1996-09-02 03:00:00 TS 18.2350 -110.038 main 513 513 P_____________ EP081996 18.2350 -110.038 TD 32 1005 -1 4 285
1996244N13257 1996 75 EP MM ELIDA 1996-09-02 06:00:00 TS 18.3000 -110.200 35 1005 hurdat_epa main 514 503 O_____________ hurdat_epa EP081996 18.3000 -110.200 TS 35 1005 0 3 314
1996244N13257 1996 75 EP MM ELIDA 1996-09-02 09:00:00 TS 18.4275 -110.245 main 503 481 P_____________ EP081996 18.4275 -110.245 TS 35 1004 0 3 0
1996244N13257 1996 75 EP MM ELIDA 1996-09-02 12:00:00 TS 18.6000 -110.200 35 1004 hurdat_epa main 481 458 O_____________ hurdat_epa EP081996 18.6000 -110.200 TS 35 1004 0 4 22
1996244N13257 1996 75 EP MM ELIDA 1996-09-02 15:00:00 TS 18.7775 -110.093 main 458 436 P_____________ EP081996 18.7775 -110.093 TS 35 1003 0 4 25
1996244N13257 1996 75 EP MM ELIDA 1996-09-02 18:00:00 TS 19.0000 -110.000 35 1003 hurdat_epa main 436 402 O_____________ hurdat_epa EP081996 19.0000 -110.000 TS 35 1003 0 5 10
1996244N13257 1996 75 EP MM ELIDA 1996-09-02 21:00:00 TS 19.2999 -109.990 main 402 369 P_____________ EP081996 19.2999 -109.990 TS 37 1003 0 6 351
1996244N13257 1996 75 EP MM ELIDA 1996-09-03 00:00:00 TS 19.6000 -110.100 40 1003 hurdat_epa main 369 348 O_____________ hurdat_epa EP081996 19.6000 -110.100 TS 40 1003 0 6 324
1996244N13257 1996 75 EP MM ELIDA 1996-09-03 03:00:00 TS 19.8001 -110.377 main 349 332 P_____________ EP081996 19.8001 -110.377 TS 40 1002 0 7 305
1996244N13257 1996 75 EP MM ELIDA 1996-09-03 06:00:00 TS 20.0000 -110.700 40 1002 hurdat_epa main 332 305 O_____________ hurdat_epa EP081996 20.0000 -110.700 TS 40 1002 0 7 314
1996244N13257 1996 75 EP MM ELIDA 1996-09-03 09:00:00 TS 20.2924 -110.923 main 305 281 P_____________ EP081996 20.2924 -110.923 TS 42 1001 0 7 328
1996244N13257 1996 75 EP MM ELIDA 1996-09-03 12:00:00 TS 20.6000 -111.100 45 1000 hurdat_epa main 281 265 O_____________ hurdat_epa EP081996 20.6000 -111.100 TS 45 1000 0 6 331
1996244N13257 1996 75 EP MM ELIDA 1996-09-03 15:00:00 TS 20.8499 -111.250 main 270 247 P_____________ EP081996 20.8499 -111.250 TS 47 998 0 6 331
1996244N13257 1996 75 EP MM ELIDA 1996-09-03 18:00:00 TS 21.1000 -111.400 50 997 hurdat_epa main 247 235 O_____________ hurdat_epa EP081996 21.1000 -111.400 TS 50 997 0 6 329
1996244N13257 1996 75 EP MM ELIDA 1996-09-03 21:00:00 TS 21.4000 -111.600 main 235 227 P_____________ EP081996 21.4000 -111.600 TS 52 996 0 7 328
1996244N13257 1996 75 EP MM ELIDA 1996-09-04 00:00:00 TS 21.7000 -111.800 55 995 hurdat_epa main 228 222 O_____________ hurdat_epa EP081996 21.7000 -111.800 TS 55 995 0 7 329
1996244N13257 1996 75 EP MM ELIDA 1996-09-04 03:00:00 TS 21.9575 -111.958 main 228 224 P_____________ EP081996 21.9575 -111.958 TS 55 994 0 6 331
1996244N13257 1996 75 EP MM ELIDA 1996-09-04 06:00:00 TS 22.2000 -112.100 55 994 hurdat_epa main 227 218 O_____________ hurdat_epa EP081996 22.2000 -112.100 TS 55 994 0 6 331
1996244N13257 1996 75 EP MM ELIDA 1996-09-04 09:00:00 TS 22.4500 -112.258 main 216 205 P_____________ EP081996 22.4500 -112.258 TS 52 995 0 6 331
1996244N13257 1996 75 EP MM ELIDA 1996-09-04 12:00:00 TS 22.7000 -112.400 50 996 hurdat_epa main 205 181 O_____________ hurdat_epa EP081996 22.7000 -112.400 TS 50 996 0 6 335
1996244N13257 1996 75 EP MM ELIDA 1996-09-04 15:00:00 TS 22.9650 -112.515 main 181 166 P_____________ EP081996 22.9650 -112.515 TS 45 998 0 5 340
1996244N13257 1996 75 EP MM ELIDA 1996-09-04 18:00:00 TS 23.2000 -112.600 40 1000 hurdat_epa main 166 153 O_____________ hurdat_epa EP081996 23.2000 -112.600 TS 40 1000 0 4 342
1996244N13257 1996 75 EP MM ELIDA 1996-09-04 21:00:00 TS 23.3725 -112.658 main 153 144 P_____________ EP081996 23.3725 -112.658 TS 37 1001 0 3 344
1996244N13257 1996 75 EP MM ELIDA 1996-09-05 00:00:00 TS 23.5000 -112.700 35 1003 hurdat_epa main 144 135 O_____________ hurdat_epa EP081996 23.5000 -112.700 TS 35 1003 0 3 340
1996244N13257 1996 75 EP MM ELIDA 1996-09-05 03:00:00 TS 23.6075 -112.750 main 141 132 P_____________ EP081996 23.6075 -112.750 TS 35 1003 0 2 335
1996244N13257 1996 75 EP MM ELIDA 1996-09-05 06:00:00 TS 23.7000 -112.800 35 1004 hurdat_epa main 132 123 O_____________ hurdat_epa EP081996 23.7000 -112.800 TS 35 1004 0 2 335
1996244N13257 1996 75 EP MM ELIDA 1996-09-05 09:00:00 TS 23.8000 -112.850 main 129 120 P_____________ EP081996 23.8000 -112.850 TS 32 1004 -1 2 335
1996244N13257 1996 75 EP MM ELIDA 1996-09-05 12:00:00 TS 23.9000 -112.900 30 1005 hurdat_epa main 120 112 O_____________ hurdat_epa EP081996 23.9000 -112.900 TD 30 1005 -1 2 335
1996244N13257 1996 75 EP MM ELIDA 1996-09-05 15:00:00 TS 24.0000 -112.950 main 120 112 P_____________ EP081996 24.0000 -112.950 TD 30 1005 -1 2 335
1996244N13257 1996 75 EP MM ELIDA 1996-09-05 18:00:00 TS 24.1000 -113.000 30 1005 hurdat_epa main 112 105 O_____________ hurdat_epa EP081996 24.1000 -113.000 TD 30 1005 -1 2 335
1996244N13257 1996 75 EP MM ELIDA 1996-09-05 21:00:00 TS 24.2000 -113.050 main 113 106 P_____________ EP081996 24.2000 -113.050 TD 30 1005 -1 2 335
1996244N13257 1996 75 EP MM ELIDA 1996-09-06 00:00:00 TS 24.3000 -113.100 30 1005 hurdat_epa main 106 101 O_____________ hurdat_epa EP081996 24.3000 -113.100 TD 30 1005 -1 2 335
1996244N13257 1996 75 EP MM ELIDA 1996-09-06 03:00:00 TS 24.4000 -113.150 main 101 106 P_____________ EP081996 24.4000 -113.150 TD 27 1005 -1 2 335
1996244N13257 1996 75 EP MM ELIDA 1996-09-06 06:00:00 TS 24.5000 -113.200 25 1005 hurdat_epa main 106 103 O_____________ hurdat_epa EP081996 24.5000 -113.200 TD 25 1005 -1 2 335
1996244N13257 1996 75 EP MM ELIDA 1996-09-06 09:00:00 TS 24.6000 -113.250 main 103 103 P_____________ EP081996 24.6000 -113.250 TD 25 1005 -1 2 335
1996244N13257 1996 75 EP MM ELIDA 1996-09-06 12:00:00 TS 24.7000 -113.300 25 1005 hurdat_epa main 111 O_____________ hurdat_epa EP081996 24.7000 -113.300 TD 25 1005 -1 2 343

IBTrACS Databaseについて

本データベースは、米国NOAAが公開する1842年以降の世界の熱帯低気圧のベストトラックデータアーカイブInternational Best Track Archive for Climate Stewardship (IBTrACS)を、ウェブで閲覧しやすい形式に変換したものです。

最終更新日:2021-10-27